createdAt,value
2017-08-26T00:00:35.734Z,18.10
2017-08-26T00:03:04.006Z,18.30
2017-08-26T00:05:32.540Z,18.40
2017-08-26T00:08:00.983Z,18.30
2017-08-26T00:10:29.433Z,18.20
2017-08-26T00:12:57.982Z,18.10
2017-08-26T00:15:26.441Z,18.00
2017-08-26T00:17:54.906Z,17.90
2017-08-26T00:20:23.450Z,17.80
2017-08-26T00:22:51.929Z,17.70
2017-08-26T00:25:21.282Z,17.60
2017-08-26T00:27:49.779Z,17.60
2017-08-26T00:30:21.063Z,17.60
2017-08-26T00:32:49.587Z,17.80
2017-08-26T00:35:18.085Z,17.90
2017-08-26T00:37:46.531Z,17.90
2017-08-26T00:40:14.989Z,17.90
2017-08-26T00:42:43.658Z,18.10
2017-08-26T00:45:12.154Z,18.00
2017-08-26T00:47:40.690Z,18.00
2017-08-26T00:50:09.143Z,17.90
2017-08-26T00:52:37.632Z,17.90
2017-08-26T00:55:06.129Z,17.90
2017-08-26T00:57:34.621Z,18.00
2017-08-26T01:00:02.999Z,18.00
2017-08-26T01:02:31.481Z,18.20
2017-08-26T01:04:59.605Z,18.20
2017-08-26T01:07:32.746Z,18.20
2017-08-26T01:10:01.224Z,18.20
2017-08-26T01:12:29.715Z,18.20
2017-08-26T01:14:58.207Z,18.20
2017-08-26T01:17:26.782Z,18.10
2017-08-26T01:19:54.886Z,18.10
2017-08-26T01:22:23.033Z,18.30
2017-08-26T01:24:51.581Z,18.30
2017-08-26T01:27:20.042Z,18.40
2017-08-26T01:29:48.494Z,18.50
2017-08-26T01:32:16.974Z,18.50
2017-08-26T01:34:45.422Z,18.60
2017-08-26T01:37:13.906Z,18.60
2017-08-26T01:39:42.394Z,18.70
2017-08-26T01:42:10.880Z,18.60
2017-08-26T01:44:39.357Z,18.60
2017-08-26T01:47:07.851Z,18.50
2017-08-26T01:49:36.315Z,18.40
2017-08-26T01:52:04.802Z,18.30
2017-08-26T01:54:33.379Z,18.10
2017-08-26T01:57:01.830Z,18.00
2017-08-26T01:59:30.314Z,17.90
2017-08-26T02:01:58.822Z,17.80
2017-08-26T02:04:27.274Z,17.60
2017-08-26T02:06:55.762Z,17.60
2017-08-26T02:09:24.269Z,17.40
2017-08-26T02:11:52.753Z,17.30
2017-08-26T02:14:21.239Z,17.20
2017-08-26T02:16:49.756Z,17.10
2017-08-26T02:19:18.242Z,17.00
2017-08-26T02:21:46.746Z,17.00
2017-08-26T02:24:15.234Z,16.90
2017-08-26T02:26:43.722Z,16.80
2017-08-26T02:29:12.249Z,16.80
2017-08-26T02:31:40.691Z,16.80
2017-08-26T02:34:09.182Z,16.80
2017-08-26T02:36:37.648Z,16.90
2017-08-26T02:39:06.130Z,16.90
2017-08-26T02:41:34.588Z,16.90
2017-08-26T02:44:03.056Z,16.90
2017-08-26T02:46:31.601Z,16.90
2017-08-26T02:49:00.102Z,16.90
2017-08-26T02:51:28.602Z,16.80
2017-08-26T02:53:57.141Z,16.80
2017-08-26T02:56:25.637Z,16.80
2017-08-26T02:58:54.178Z,16.80
2017-08-26T03:01:22.753Z,17.00
2017-08-26T03:03:51.236Z,17.00
2017-08-26T03:06:19.713Z,17.00
2017-08-26T03:08:48.270Z,16.90
2017-08-26T03:11:16.762Z,17.00
2017-08-26T03:13:45.252Z,17.10
2017-08-26T03:16:13.733Z,17.30
2017-08-26T03:18:42.202Z,17.60
2017-08-26T03:21:10.708Z,17.80
2017-08-26T03:23:39.169Z,17.80
2017-08-26T03:26:07.638Z,17.80
2017-08-26T03:28:36.108Z,17.80
2017-08-26T03:31:04.606Z,17.80
2017-08-26T03:33:33.163Z,17.90
2017-08-26T03:36:02.431Z,17.80
2017-08-26T03:38:30.930Z,17.80
2017-08-26T03:40:59.569Z,17.90
2017-08-26T03:43:28.091Z,17.80
2017-08-26T03:45:56.565Z,17.70
2017-08-26T03:48:25.847Z,17.60
2017-08-26T03:50:54.297Z,17.60
2017-08-26T03:53:22.742Z,17.60
2017-08-26T03:55:52.059Z,17.50
2017-08-26T03:58:20.563Z,17.50
2017-08-26T04:00:49.065Z,17.60
2017-08-26T04:03:17.531Z,17.60
2017-08-26T04:05:46.054Z,17.60
2017-08-26T04:08:14.738Z,17.40
2017-08-26T04:10:43.266Z,17.30
2017-08-26T04:13:11.393Z,17.20
2017-08-26T04:15:39.880Z,17.20
2017-08-26T04:18:08.386Z,17.20
2017-08-26T04:20:36.854Z,17.30
2017-08-26T04:23:05.364Z,17.10
2017-08-26T04:25:33.922Z,17.00
2017-08-26T04:28:02.404Z,17.20
2017-08-26T04:30:30.875Z,17.20
2017-08-26T04:32:59.450Z,17.30
2017-08-26T04:35:28.000Z,17.60
2017-08-26T04:37:56.538Z,17.90
2017-08-26T04:40:25.122Z,18.20
2017-08-26T04:42:53.582Z,18.40
2017-08-26T04:45:22.058Z,18.50
2017-08-26T04:47:50.562Z,18.60
2017-08-26T04:50:19.117Z,18.70
2017-08-26T04:52:47.657Z,18.70
2017-08-26T04:55:16.161Z,18.70
2017-08-26T04:57:44.683Z,18.70
2017-08-26T05:00:13.248Z,18.80
2017-08-26T05:02:41.798Z,18.90
2017-08-26T05:05:10.310Z,18.90
2017-08-26T05:07:38.871Z,18.90
2017-08-26T05:10:07.369Z,18.90
2017-08-26T05:12:35.864Z,19.00
2017-08-26T05:15:04.473Z,19.00
2017-08-26T05:17:32.942Z,19.10
2017-08-26T05:20:01.476Z,19.30
2017-08-26T05:22:30.019Z,19.30
2017-08-26T05:24:58.486Z,19.50
2017-08-26T05:27:27.076Z,19.50
2017-08-26T05:29:55.642Z,19.50
2017-08-26T05:32:24.103Z,19.60
2017-08-26T05:34:52.549Z,19.60
2017-08-26T05:37:21.024Z,19.90
2017-08-26T05:39:49.575Z,20.10
2017-08-26T05:42:18.072Z,20.20
2017-08-26T05:44:46.643Z,20.40
2017-08-26T05:47:15.126Z,20.60
2017-08-26T05:49:43.628Z,20.70
2017-08-26T05:52:12.169Z,20.70
2017-08-26T05:54:40.633Z,20.90
2017-08-26T05:57:09.111Z,21.00
2017-08-26T05:59:37.642Z,21.20
2017-08-26T06:02:05.922Z,21.20
2017-08-26T06:04:34.442Z,21.30
2017-08-26T06:07:03.911Z,21.20
2017-08-26T06:09:32.386Z,21.20
2017-08-26T06:12:00.870Z,21.20
2017-08-26T06:14:29.345Z,21.30
2017-08-26T06:16:57.845Z,21.50
2017-08-26T06:19:26.354Z,21.70
2017-08-26T06:21:54.903Z,21.90
2017-08-26T06:24:23.378Z,22.20
2017-08-26T06:26:52.294Z,22.30
2017-08-26T06:29:20.826Z,22.50
2017-08-26T06:31:49.276Z,22.90
2017-08-26T06:34:18.387Z,23.10
2017-08-26T06:36:46.887Z,23.20
2017-08-26T06:39:15.617Z,23.40
2017-08-26T06:41:44.123Z,23.50
2017-08-26T06:44:12.592Z,23.60
2017-08-26T06:46:41.072Z,23.80
2017-08-26T06:49:09.555Z,24.20
2017-08-26T06:51:38.055Z,24.60
2017-08-26T06:54:06.507Z,25.20
2017-08-26T06:56:35.023Z,25.80
2017-08-26T06:59:03.571Z,26.60
2017-08-26T07:01:32.067Z,27.30
2017-08-26T07:04:00.584Z,27.20
2017-08-26T07:06:29.109Z,27.20
2017-08-26T07:08:57.599Z,27.00
2017-08-26T07:11:26.140Z,26.90
2017-08-26T07:13:54.668Z,27.30
2017-08-26T07:16:23.147Z,27.10
2017-08-26T07:18:52.518Z,27.40
2017-08-26T07:21:21.006Z,27.50
2017-08-26T07:23:49.470Z,27.20
2017-08-26T07:26:18.024Z,27.30
2017-08-26T07:28:46.489Z,27.60
2017-08-26T07:31:14.969Z,27.70
2017-08-26T07:36:19.590Z,28.40
2017-08-26T07:38:48.079Z,28.80
2017-08-26T07:41:16.607Z,29.50
2017-08-26T07:43:45.070Z,30.20
2017-08-26T07:46:13.536Z,31.30
2017-08-26T07:48:42.040Z,32.50
2017-08-26T07:51:10.512Z,32.70
2017-08-26T07:53:38.994Z,34.10
2017-08-26T07:56:07.555Z,34.40
2017-08-26T07:58:36.298Z,34.70
2017-08-26T08:01:07.903Z,35.40
2017-08-26T08:03:36.350Z,35.00
2017-08-26T08:06:04.871Z,34.00
2017-08-26T08:08:33.338Z,35.00
2017-08-26T08:11:01.811Z,35.10
2017-08-26T08:13:30.351Z,35.00
2017-08-26T08:16:01.156Z,35.40
2017-08-26T08:18:29.647Z,35.80
2017-08-26T08:20:58.191Z,35.90
2017-08-26T08:23:26.692Z,36.20
2017-08-26T08:25:55.153Z,37.10
2017-08-26T08:28:23.635Z,37.50
2017-08-26T08:30:52.166Z,37.00
2017-08-26T08:33:20.680Z,37.40
2017-08-26T08:35:52.355Z,37.60
2017-08-26T08:38:20.843Z,37.70
2017-08-26T08:40:49.333Z,37.60
2017-08-26T08:43:18.063Z,38.20
2017-08-26T08:45:46.591Z,38.50
2017-08-26T08:48:20.051Z,38.20
2017-08-26T08:50:48.504Z,38.60
2017-08-26T08:53:16.992Z,38.70
2017-08-26T08:55:45.294Z,38.50
2017-08-26T08:58:13.782Z,38.60
2017-08-26T09:00:42.290Z,38.80
2017-08-26T09:03:10.791Z,38.30
2017-08-26T09:05:39.284Z,38.90
2017-08-26T09:08:07.802Z,38.70
2017-08-26T09:10:36.274Z,39.00
2017-08-26T09:13:04.786Z,39.00
2017-08-26T09:15:33.258Z,39.50
2017-08-26T09:18:01.822Z,40.00
2017-08-26T09:20:30.273Z,40.10
2017-08-26T09:22:58.756Z,40.50
2017-08-26T09:25:27.262Z,40.50
2017-08-26T09:27:55.752Z,40.30
2017-08-26T09:30:24.215Z,40.50
2017-08-26T09:32:52.691Z,41.20
2017-08-26T09:35:21.234Z,40.60
2017-08-26T09:37:49.722Z,40.60
2017-08-26T09:40:18.182Z,40.60
2017-08-26T09:42:46.639Z,41.50
2017-08-26T09:45:15.082Z,41.80
2017-08-26T09:47:44.326Z,40.80
2017-08-26T09:50:12.596Z,40.80
2017-08-26T09:52:41.058Z,40.70
2017-08-26T09:55:09.537Z,40.10
2017-08-26T09:57:38.050Z,40.50
2017-08-26T10:00:06.510Z,40.70
2017-08-26T10:02:34.988Z,40.30
2017-08-26T10:05:03.472Z,41.40
2017-08-26T10:07:31.925Z,41.10
2017-08-26T10:10:01.155Z,41.00
2017-08-26T10:12:29.596Z,40.90
2017-08-26T10:14:58.061Z,40.20
2017-08-26T10:17:26.553Z,40.70
2017-08-26T10:19:55.011Z,41.10
2017-08-26T10:22:23.496Z,41.40
2017-08-26T10:24:51.971Z,41.50
2017-08-26T10:27:20.667Z,41.10
2017-08-26T10:29:48.965Z,40.60
2017-08-26T10:32:17.255Z,41.10
2017-08-26T10:34:45.541Z,41.50
2017-08-26T10:37:13.864Z,40.70
2017-08-26T10:39:42.122Z,41.10
2017-08-26T10:42:10.426Z,41.00
2017-08-26T10:44:38.671Z,41.60
2017-08-26T10:47:07.730Z,41.40
2017-08-26T10:49:36.013Z,41.40
2017-08-26T10:52:04.338Z,41.20
2017-08-26T10:54:32.801Z,41.20
2017-08-26T10:57:01.846Z,41.00
2017-08-26T10:59:30.297Z,40.90
2017-08-26T11:01:58.806Z,41.50
2017-08-26T11:04:27.268Z,41.00
2017-08-26T11:06:55.712Z,41.50
2017-08-26T11:09:24.227Z,41.10
2017-08-26T11:11:52.701Z,40.80
2017-08-26T11:14:21.157Z,40.90
2017-08-26T11:16:49.673Z,39.90
2017-08-26T11:19:18.133Z,39.90
2017-08-26T11:21:46.560Z,39.10
2017-08-26T11:24:15.121Z,39.40
2017-08-26T11:26:43.622Z,39.70
2017-08-26T11:29:12.197Z,39.40
2017-08-26T11:31:40.643Z,38.60
2017-08-26T11:34:09.097Z,38.40
2017-08-26T11:36:37.568Z,38.50
2017-08-26T11:39:06.060Z,37.30
2017-08-26T11:41:34.530Z,37.50
2017-08-26T11:44:03.039Z,38.00
2017-08-26T11:46:31.706Z,37.70
2017-08-26T11:49:00.157Z,38.50
2017-08-26T11:51:28.651Z,37.70
2017-08-26T11:53:57.091Z,37.30
2017-08-26T11:56:25.763Z,37.30
2017-08-26T11:58:54.215Z,37.50
2017-08-26T12:01:22.667Z,37.20
2017-08-26T12:03:51.138Z,36.70
2017-08-26T12:06:19.627Z,36.50
2017-08-26T12:08:48.139Z,36.90
2017-08-26T12:11:16.572Z,37.20
2017-08-26T12:13:45.089Z,37.90
2017-08-26T12:16:13.541Z,37.90
2017-08-26T12:18:42.006Z,37.60
2017-08-26T12:21:10.486Z,37.90
2017-08-26T12:23:39.715Z,38.30
2017-08-26T12:26:08.169Z,38.30
2017-08-26T12:28:36.700Z,38.30
2017-08-26T12:31:05.157Z,38.50
2017-08-26T12:33:33.614Z,38.20
2017-08-26T12:36:02.091Z,38.20
2017-08-26T12:38:30.550Z,38.30
2017-08-26T12:40:58.827Z,38.10
2017-08-26T12:43:27.289Z,37.80
2017-08-26T12:45:55.733Z,37.60
2017-08-26T12:48:24.190Z,37.20
2017-08-26T12:50:52.658Z,37.10
2017-08-26T12:53:21.115Z,37.20
2017-08-26T12:55:49.562Z,37.10
2017-08-26T12:58:18.061Z,37.10
2017-08-26T13:00:46.551Z,36.70
2017-08-26T13:03:15.056Z,36.20
2017-08-26T13:05:43.575Z,36.60
2017-08-26T13:08:11.828Z,37.00
2017-08-26T13:10:40.287Z,36.40
2017-08-26T13:13:08.777Z,36.10
2017-08-26T13:15:37.230Z,35.80
2017-08-26T13:18:05.702Z,36.00
2017-08-26T13:20:35.018Z,35.60
2017-08-26T13:23:03.470Z,35.60
2017-08-26T13:25:31.914Z,35.10
2017-08-26T13:28:00.373Z,34.90
2017-08-26T13:30:28.829Z,34.60
2017-08-26T13:32:57.345Z,34.50
2017-08-26T13:35:25.841Z,34.20
2017-08-26T13:37:54.328Z,34.10
2017-08-26T13:40:22.814Z,33.80
2017-08-26T13:42:51.316Z,33.70
2017-08-26T13:45:19.888Z,33.90
2017-08-26T13:47:48.370Z,34.30
2017-08-26T13:50:16.822Z,34.40
2017-08-26T13:52:45.299Z,34.60
2017-08-26T13:55:13.794Z,34.70
2017-08-26T13:57:42.242Z,34.50
2017-08-26T14:00:10.761Z,34.00
2017-08-26T14:02:39.192Z,33.80
2017-08-26T14:05:07.687Z,33.50
2017-08-26T14:07:36.169Z,33.10
2017-08-26T14:10:04.611Z,33.10
2017-08-26T14:12:33.432Z,33.60
2017-08-26T14:15:01.969Z,33.70
2017-08-26T14:17:30.409Z,33.20
2017-08-26T14:19:58.871Z,32.60
2017-08-26T14:22:28.101Z,31.50
2017-08-26T14:24:56.578Z,31.40
2017-08-26T14:27:25.042Z,31.70
2017-08-26T14:29:53.534Z,31.60
2017-08-26T14:32:22.027Z,31.70
2017-08-26T14:34:50.466Z,31.80
2017-08-26T14:37:18.926Z,31.70
2017-08-26T14:39:47.378Z,31.80
2017-08-26T14:42:15.824Z,31.80
2017-08-26T14:44:44.384Z,31.60
2017-08-26T14:47:12.841Z,31.10
2017-08-26T14:49:41.321Z,31.00
2017-08-26T14:52:09.806Z,31.00
2017-08-26T14:54:38.254Z,31.00
2017-08-26T14:57:06.770Z,31.00
2017-08-26T14:59:35.222Z,31.00
2017-08-26T15:02:03.704Z,31.20
2017-08-26T15:04:32.174Z,31.30
2017-08-26T15:07:00.642Z,31.40
2017-08-26T15:09:29.101Z,31.50
2017-08-26T15:11:57.532Z,31.20
2017-08-26T15:14:26.066Z,31.00
2017-08-26T15:16:54.567Z,30.80
2017-08-26T15:19:23.018Z,30.50
2017-08-26T15:21:51.539Z,30.30
2017-08-26T15:24:19.977Z,29.90
2017-08-26T15:26:48.437Z,29.40
2017-08-26T15:29:16.898Z,29.30
2017-08-26T15:31:47.412Z,29.30
2017-08-26T15:34:16.689Z,29.10
2017-08-26T15:36:45.147Z,29.10
2017-08-26T15:39:13.598Z,28.90
2017-08-26T15:41:42.866Z,28.70
2017-08-26T15:44:11.331Z,28.70
2017-08-26T15:46:39.823Z,28.70
2017-08-26T15:49:08.371Z,28.50
2017-08-26T15:51:36.838Z,28.40
2017-08-26T15:54:05.281Z,28.50
2017-08-26T15:56:33.780Z,28.30
2017-08-26T15:59:02.217Z,28.30
2017-08-26T16:01:30.678Z,28.20
2017-08-26T16:03:59.171Z,28.30
2017-08-26T16:06:27.635Z,28.40
2017-08-26T16:08:56.140Z,28.40
2017-08-26T16:11:24.707Z,28.60
2017-08-26T16:13:52.958Z,28.70
2017-08-26T16:16:21.393Z,28.50
2017-08-26T16:18:49.898Z,28.60
2017-08-26T16:21:18.349Z,28.60
2017-08-26T16:23:46.822Z,28.50
2017-08-26T16:26:15.312Z,28.50
2017-08-26T16:28:43.801Z,28.30
2017-08-26T16:31:12.296Z,28.20
2017-08-26T16:33:40.770Z,28.00
2017-08-26T16:36:09.200Z,28.00
2017-08-26T16:38:37.514Z,27.60
2017-08-26T16:41:06.042Z,27.30
2017-08-26T16:43:34.498Z,27.00
2017-08-26T16:46:02.946Z,26.70
2017-08-26T16:48:31.418Z,26.40
2017-08-26T16:50:59.921Z,26.30
2017-08-26T16:53:28.394Z,26.00
2017-08-26T16:55:56.919Z,25.80
2017-08-26T16:58:25.379Z,25.50
2017-08-26T17:00:53.883Z,25.30
2017-08-26T17:03:22.347Z,25.10
2017-08-26T17:05:50.783Z,25.00
2017-08-26T17:08:19.325Z,24.90
2017-08-26T17:10:47.822Z,24.70
2017-08-26T17:13:16.353Z,24.50
2017-08-26T17:15:45.069Z,24.30
2017-08-26T17:18:13.797Z,24.20
2017-08-26T17:20:42.245Z,24.10
2017-08-26T17:23:10.729Z,23.90
2017-08-26T17:25:39.204Z,23.90
2017-08-26T17:28:07.695Z,23.70
2017-08-26T17:30:36.181Z,23.70
2017-08-26T17:33:04.717Z,23.50
2017-08-26T17:35:33.166Z,23.30
2017-08-26T17:38:01.600Z,23.20
2017-08-26T17:40:30.118Z,23.10
2017-08-26T17:42:58.627Z,23.00
2017-08-26T17:45:27.175Z,22.90
2017-08-26T17:47:55.711Z,22.80
2017-08-26T17:50:24.230Z,22.70
2017-08-26T17:52:52.730Z,22.60
2017-08-26T17:55:21.333Z,22.50
2017-08-26T17:57:49.836Z,22.40
2017-08-26T18:00:18.336Z,22.30
2017-08-26T18:02:47.605Z,22.00
2017-08-26T18:05:16.137Z,22.00
2017-08-26T18:07:44.726Z,22.00
2017-08-26T18:10:13.226Z,21.90
2017-08-26T18:12:41.720Z,21.70
2017-08-26T18:15:10.223Z,21.60
2017-08-26T18:17:38.824Z,21.50
2017-08-26T18:20:07.360Z,21.40
2017-08-26T18:22:35.843Z,21.40
2017-08-26T18:25:04.330Z,21.30
2017-08-26T18:27:32.867Z,21.20
2017-08-26T18:30:01.336Z,21.20
2017-08-26T18:32:29.866Z,21.10
2017-08-26T18:34:58.422Z,21.10
2017-08-26T18:37:26.945Z,20.90
2017-08-26T18:39:55.550Z,20.80
2017-08-26T18:42:24.123Z,20.70
2017-08-26T18:44:53.144Z,20.70
2017-08-26T18:47:21.670Z,20.60
2017-08-26T18:49:50.365Z,20.60
2017-08-26T18:52:19.057Z,20.60
2017-08-26T18:54:47.644Z,20.60
2017-08-26T18:57:16.151Z,20.40
2017-08-26T18:59:44.666Z,20.30
2017-08-26T19:02:13.199Z,20.20
2017-08-26T19:04:41.688Z,20.10
2017-08-26T19:07:10.208Z,20.10
2017-08-26T19:09:38.699Z,20.00
2017-08-26T19:12:07.215Z,20.00
2017-08-26T19:14:35.798Z,20.00
2017-08-26T19:17:04.347Z,19.90
2017-08-26T19:19:32.838Z,19.90
2017-08-26T19:22:01.379Z,19.90
2017-08-26T19:24:29.895Z,19.70
2017-08-26T19:26:58.378Z,19.70
2017-08-26T19:29:26.942Z,19.70
2017-08-26T19:31:55.444Z,19.60
2017-08-26T19:34:23.619Z,19.60
2017-08-26T19:36:52.159Z,19.60
2017-08-26T19:39:20.655Z,19.50
2017-08-26T19:41:49.172Z,19.50
2017-08-26T19:44:17.936Z,19.40
2017-08-26T19:46:46.460Z,19.50
2017-08-26T19:49:14.938Z,19.50
2017-08-26T19:51:43.459Z,19.40
2017-08-26T19:54:11.941Z,19.40
2017-08-26T19:56:40.433Z,19.40
2017-08-26T19:59:08.779Z,19.40
2017-08-26T20:01:37.251Z,19.40
2017-08-26T20:04:05.747Z,19.30
2017-08-26T20:06:34.232Z,19.30
2017-08-26T20:09:02.706Z,19.20
2017-08-26T20:11:31.222Z,19.20
2017-08-26T20:13:59.766Z,19.20
2017-08-26T20:16:28.289Z,19.10
2017-08-26T20:18:56.806Z,19.10
2017-08-26T20:21:25.343Z,19.10
2017-08-26T20:23:54.016Z,19.10
2017-08-26T20:26:22.551Z,19.10
2017-08-26T20:28:51.102Z,19.10
2017-08-26T20:31:19.605Z,19.10
2017-08-26T20:33:47.948Z,19.10
2017-08-26T20:36:16.298Z,19.10
2017-08-26T20:38:44.610Z,19.10
2017-08-26T20:41:13.087Z,19.30
2017-08-26T20:43:41.594Z,19.30
2017-08-26T20:46:10.190Z,19.30
2017-08-26T20:48:38.687Z,19.30
2017-08-26T20:51:07.172Z,19.30
2017-08-26T20:53:35.714Z,19.30
2017-08-26T20:56:04.239Z,19.20
2017-08-26T20:58:32.563Z,19.20
2017-08-26T21:01:00.874Z,19.20
2017-08-26T21:03:29.346Z,19.20
2017-08-26T21:05:57.623Z,19.20
2017-08-26T21:08:26.159Z,19.20
2017-08-26T21:10:54.655Z,19.10
2017-08-26T21:13:23.183Z,19.10
2017-08-26T21:15:51.715Z,19.10
2017-08-26T21:18:20.234Z,19.10
2017-08-26T21:20:48.742Z,19.10
2017-08-26T21:23:17.234Z,19.20
2017-08-26T21:25:45.730Z,19.20
2017-08-26T21:28:14.258Z,19.30
2017-08-26T21:30:42.795Z,19.40
2017-08-26T21:33:11.322Z,19.40
2017-08-26T21:35:39.856Z,19.60
2017-08-26T21:38:09.253Z,20.00
2017-08-26T21:40:37.872Z,20.00
2017-08-26T21:43:07.115Z,20.00
2017-08-26T21:45:35.647Z,19.90
2017-08-26T21:48:04.128Z,19.90
2017-08-26T21:50:32.622Z,19.80
2017-08-26T21:53:01.138Z,19.80
2017-08-26T21:55:29.711Z,19.80
2017-08-26T21:57:58.289Z,19.80
2017-08-26T22:00:26.782Z,19.70
2017-08-26T22:02:55.457Z,19.80
2017-08-26T22:05:23.963Z,19.70
2017-08-26T22:07:52.462Z,19.80
2017-08-26T22:10:21.428Z,19.70
2017-08-26T22:12:49.923Z,19.60
2017-08-26T22:15:18.224Z,19.60
2017-08-26T22:17:46.783Z,19.50
2017-08-26T22:20:15.288Z,19.60
2017-08-26T22:22:44.014Z,19.60
2017-08-26T22:25:12.545Z,19.60
2017-08-26T22:27:41.089Z,19.70
2017-08-26T22:30:09.586Z,19.70
2017-08-26T22:32:38.294Z,19.70
2017-08-26T22:35:06.816Z,20.00
2017-08-26T22:37:35.325Z,20.20
2017-08-26T22:40:03.779Z,20.40
2017-08-26T22:42:32.305Z,20.40
2017-08-26T22:45:00.842Z,20.40
2017-08-26T22:47:29.579Z,20.50
2017-08-26T22:49:58.078Z,20.70
2017-08-26T22:52:26.567Z,20.80
2017-08-26T22:54:54.913Z,20.90
2017-08-26T22:57:23.421Z,20.80
2017-08-26T22:59:51.925Z,20.70
2017-08-26T23:02:22.090Z,20.50
2017-08-26T23:04:50.590Z,20.50
2017-08-26T23:07:19.111Z,20.40
2017-08-26T23:09:47.618Z,20.30
2017-08-26T23:12:16.102Z,20.10
2017-08-26T23:14:44.667Z,19.90
2017-08-26T23:17:13.243Z,19.70
2017-08-26T23:19:41.758Z,19.70
2017-08-26T23:22:10.328Z,19.70
2017-08-26T23:24:38.892Z,19.60
2017-08-26T23:27:07.221Z,19.60
2017-08-26T23:29:35.723Z,19.50
2017-08-26T23:32:04.243Z,19.40
2017-08-26T23:34:32.576Z,19.30
2017-08-26T23:37:01.242Z,19.20
2017-08-26T23:39:29.714Z,19.20
2017-08-26T23:41:58.203Z,19.20
2017-08-26T23:44:26.702Z,19.10
2017-08-26T23:46:55.212Z,19.00
2017-08-26T23:49:23.559Z,19.00
2017-08-26T23:51:52.062Z,19.00
2017-08-26T23:54:20.596Z,18.80
2017-08-26T23:56:49.106Z,18.80
2017-08-26T23:59:17.640Z,18.70
